sensor_id;sensor_type;location;lat;lon;timestamp;P1;durP1;ratioP1;P2;durP2;ratioP2
77948;SDS011;67146;51.236;-0.336;2023-03-01T00:01:28;11.35;;;4.60;;
77948;SDS011;67146;51.236;-0.336;2023-03-01T00:03:54;11.95;;;4.93;;
77948;SDS011;67146;51.236;-0.336;2023-03-01T00:06:20;13.43;;;5.55;;
77948;SDS011;67146;51.236;-0.336;2023-03-01T00:08:46;12.80;;;5.13;;
77948;SDS011;67146;51.236;-0.336;2023-03-01T00:13:42;12.10;;;5.18;;
77948;SDS011;67146;51.236;-0.336;2023-03-01T00:16:09;13.65;;;5.30;;
77948;SDS011;67146;51.236;-0.336;2023-03-01T00:18:36;14.73;;;6.00;;
77948;SDS011;67146;51.236;-0.336;2023-03-01T00:21:02;12.82;;;5.50;;
77948;SDS011;67146;51.236;-0.336;2023-03-01T00:23:27;13.27;;;5.53;;
77948;SDS011;67146;51.236;-0.336;2023-03-01T00:25:53;14.13;;;5.55;;
77948;SDS011;67146;51.236;-0.336;2023-03-01T00:28:18;12.77;;;5.70;;
77948;SDS011;67146;51.236;-0.336;2023-03-01T00:30:44;13.93;;;5.82;;
77948;SDS011;67146;51.236;-0.336;2023-03-01T00:33:09;12.70;;;5.80;;
77948;SDS011;67146;51.236;-0.336;2023-03-01T00:35:35;13.23;;;6.10;;
77948;SDS011;67146;51.236;-0.336;2023-03-01T00:38:01;14.15;;;5.90;;
77948;SDS011;67146;51.236;-0.336;2023-03-01T00:40:27;15.75;;;7.18;;
77948;SDS011;67146;51.236;-0.336;2023-03-01T00:42:53;15.30;;;7.65;;
77948;SDS011;67146;51.236;-0.336;2023-03-01T00:45:18;16.48;;;7.35;;
77948;SDS011;67146;51.236;-0.336;2023-03-01T00:47:44;18.15;;;7.35;;
77948;SDS011;67146;51.236;-0.336;2023-03-01T00:50:10;16.02;;;6.45;;
77948;SDS011;67146;51.236;-0.336;2023-03-01T00:52:35;15.23;;;7.35;;
77948;SDS011;67146;51.236;-0.336;2023-03-01T00:55:01;16.55;;;7.55;;
77948;SDS011;67146;51.236;-0.336;2023-03-01T00:57:27;17.00;;;7.43;;
77948;SDS011;67146;51.236;-0.336;2023-03-01T00:59:52;15.20;;;6.63;;
77948;SDS011;67146;51.236;-0.336;2023-03-01T01:02:18;16.98;;;7.38;;
77948;SDS011;67146;51.236;-0.336;2023-03-01T01:04:44;16.08;;;6.38;;
77948;SDS011;67146;51.236;-0.336;2023-03-01T01:07:10;16.85;;;6.63;;
77948;SDS011;67146;51.236;-0.336;2023-03-01T01:09:35;15.93;;;6.40;;
77948;SDS011;67146;51.236;-0.336;2023-03-01T01:12:01;16.85;;;7.70;;
77948;SDS011;67146;51.236;-0.336;2023-03-01T01:14:27;14.05;;;6.00;;
77948;SDS011;67146;51.236;-0.336;2023-03-01T01:16:52;15.00;;;6.43;;
77948;SDS011;67146;51.236;-0.336;2023-03-01T01:19:18;16.33;;;8.18;;
77948;SDS011;67146;51.236;-0.336;2023-03-01T01:21:43;17.30;;;7.03;;
77948;SDS011;67146;51.236;-0.336;2023-03-01T01:24:09;15.43;;;6.72;;
77948;SDS011;67146;51.236;-0.336;2023-03-01T01:26:35;15.20;;;6.60;;
77948;SDS011;67146;51.236;-0.336;2023-03-01T01:29:02;17.83;;;7.07;;
77948;SDS011;67146;51.236;-0.336;2023-03-01T01:31:29;15.98;;;7.28;;
77948;SDS011;67146;51.236;-0.336;2023-03-01T01:33:55;17.00;;;6.93;;
77948;SDS011;67146;51.236;-0.336;2023-03-01T01:36:20;17.27;;;7.57;;
77948;SDS011;67146;51.236;-0.336;2023-03-01T01:38:46;20.85;;;7.63;;
77948;SDS011;67146;51.236;-0.336;2023-03-01T01:41:12;17.02;;;6.80;;
77948;SDS011;67146;51.236;-0.336;2023-03-01T01:43:40;17.63;;;7.93;;
77948;SDS011;67146;51.236;-0.336;2023-03-01T01:46:13;17.50;;;7.10;;
77948;SDS011;67146;51.236;-0.336;2023-03-01T01:51:18;14.73;;;6.97;;
77948;SDS011;67146;51.236;-0.336;2023-03-01T01:53:45;17.52;;;8.05;;
77948;SDS011;67146;51.236;-0.336;2023-03-01T01:56:15;17.08;;;7.22;;
77948;SDS011;67146;51.236;-0.336;2023-03-01T01:58:42;17.60;;;7.10;;
77948;SDS011;67146;51.236;-0.336;2023-03-01T02:01:08;17.40;;;7.15;;
77948;SDS011;67146;51.236;-0.336;2023-03-01T02:03:34;15.80;;;7.25;;
77948;SDS011;67146;51.236;-0.336;2023-03-01T02:08:46;18.77;;;8.35;;
77948;SDS011;67146;51.236;-0.336;2023-03-01T02:11:12;19.90;;;8.60;;
77948;SDS011;67146;51.236;-0.336;2023-03-01T02:13:39;20.88;;;7.32;;
77948;SDS011;67146;51.236;-0.336;2023-03-01T02:16:08;17.65;;;8.05;;
77948;SDS011;67146;51.236;-0.336;2023-03-01T02:18:35;17.52;;;8.13;;
77948;SDS011;67146;51.236;-0.336;2023-03-01T02:23:47;16.95;;;7.10;;
77948;SDS011;67146;51.236;-0.336;2023-03-01T02:26:20;19.20;;;8.18;;
77948;SDS011;67146;51.236;-0.336;2023-03-01T02:28:52;18.45;;;7.57;;
77948;SDS011;67146;51.236;-0.336;2023-03-01T02:31:18;17.55;;;7.78;;
77948;SDS011;67146;51.236;-0.336;2023-03-01T02:34:04;16.60;;;6.63;;
77948;SDS011;67146;51.236;-0.336;2023-03-01T02:36:38;18.67;;;8.85;;
77948;SDS011;67146;51.236;-0.336;2023-03-01T02:39:07;18.63;;;7.88;;
77948;SDS011;67146;51.236;-0.336;2023-03-01T02:41:39;18.98;;;7.93;;
77948;SDS011;67146;51.236;-0.336;2023-03-01T02:44:06;18.17;;;7.80;;
77948;SDS011;67146;51.236;-0.336;2023-03-01T02:46:31;17.17;;;7.18;;
77948;SDS011;67146;51.236;-0.336;2023-03-01T02:48:57;20.10;;;8.38;;
77948;SDS011;67146;51.236;-0.336;2023-03-01T02:54:09;19.92;;;7.97;;
77948;SDS011;67146;51.236;-0.336;2023-03-01T02:56:54;17.20;;;8.07;;
77948;SDS011;67146;51.236;-0.336;2023-03-01T02:59:21;18.63;;;7.65;;
77948;SDS011;67146;51.236;-0.336;2023-03-01T03:01:49;21.42;;;8.65;;
77948;SDS011;67146;51.236;-0.336;2023-03-01T03:04:15;19.85;;;8.00;;
77948;SDS011;67146;51.236;-0.336;2023-03-01T03:06:45;16.60;;;7.15;;
77948;SDS011;67146;51.236;-0.336;2023-03-01T03:09:12;21.00;;;8.77;;
77948;SDS011;67146;51.236;-0.336;2023-03-01T03:11:38;18.05;;;7.35;;
77948;SDS011;67146;51.236;-0.336;2023-03-01T03:14:07;20.00;;;8.13;;
77948;SDS011;67146;51.236;-0.336;2023-03-01T03:16:39;18.73;;;7.97;;
77948;SDS011;67146;51.236;-0.336;2023-03-01T03:19:08;16.55;;;7.10;;
77948;SDS011;67146;51.236;-0.336;2023-03-01T03:21:34;17.38;;;7.20;;
77948;SDS011;67146;51.236;-0.336;2023-03-01T03:24:00;16.45;;;7.30;;
77948;SDS011;67146;51.236;-0.336;2023-03-01T03:26:25;18.23;;;7.38;;
77948;SDS011;67146;51.236;-0.336;2023-03-01T03:28:50;19.33;;;7.87;;
77948;SDS011;67146;51.236;-0.336;2023-03-01T03:31:16;15.10;;;7.75;;
77948;SDS011;67146;51.236;-0.336;2023-03-01T03:33:41;22.67;;;7.90;;
77948;SDS011;67146;51.236;-0.336;2023-03-01T03:36:07;18.23;;;7.90;;
77948;SDS011;67146;51.236;-0.336;2023-03-01T03:38:38;18.88;;;7.35;;
77948;SDS011;67146;51.236;-0.336;2023-03-01T03:41:05;18.13;;;7.47;;
77948;SDS011;67146;51.236;-0.336;2023-03-01T03:43:32;19.05;;;7.07;;
77948;SDS011;67146;51.236;-0.336;2023-03-01T03:45:59;16.13;;;7.13;;
77948;SDS011;67146;51.236;-0.336;2023-03-01T03:48:25;16.80;;;6.57;;
77948;SDS011;67146;51.236;-0.336;2023-03-01T03:50:53;20.83;;;8.45;;
77948;SDS011;67146;51.236;-0.336;2023-03-01T03:53:20;16.10;;;7.00;;
77948;SDS011;67146;51.236;-0.336;2023-03-01T03:55:46;20.55;;;7.57;;
77948;SDS011;67146;51.236;-0.336;2023-03-01T03:58:14;19.75;;;7.43;;
77948;SDS011;67146;51.236;-0.336;2023-03-01T04:00:41;19.42;;;7.95;;
77948;SDS011;67146;51.236;-0.336;2023-03-01T04:03:07;20.90;;;7.75;;
77948;SDS011;67146;51.236;-0.336;2023-03-01T04:05:33;17.10;;;6.53;;
77948;SDS011;67146;51.236;-0.336;2023-03-01T04:07:59;19.10;;;7.57;;
77948;SDS011;67146;51.236;-0.336;2023-03-01T04:10:31;17.92;;;8.13;;
77948;SDS011;67146;51.236;-0.336;2023-03-01T04:12:57;15.10;;;6.82;;
77948;SDS011;67146;51.236;-0.336;2023-03-01T04:15:23;18.98;;;8.88;;
77948;SDS011;67146;51.236;-0.336;2023-03-01T04:17:50;18.15;;;7.72;;
77948;SDS011;67146;51.236;-0.336;2023-03-01T04:20:18;17.38;;;7.07;;
77948;SDS011;67146;51.236;-0.336;2023-03-01T04:22:50;17.33;;;7.28;;
77948;SDS011;67146;51.236;-0.336;2023-03-01T04:25:54;16.58;;;6.80;;
77948;SDS011;67146;51.236;-0.336;2023-03-01T04:28:24;18.20;;;7.22;;
77948;SDS011;67146;51.236;-0.336;2023-03-01T04:30:51;18.20;;;7.82;;
77948;SDS011;67146;51.236;-0.336;2023-03-01T04:33:17;18.73;;;8.88;;
77948;SDS011;67146;51.236;-0.336;2023-03-01T04:35:43;16.73;;;7.63;;
77948;SDS011;67146;51.236;-0.336;2023-03-01T04:38:08;19.60;;;8.18;;
77948;SDS011;67146;51.236;-0.336;2023-03-01T04:40:34;19.58;;;7.75;;
77948;SDS011;67146;51.236;-0.336;2023-03-01T04:43:00;18.48;;;6.97;;
77948;SDS011;67146;51.236;-0.336;2023-03-01T04:45:26;19.38;;;7.65;;
77948;SDS011;67146;51.236;-0.336;2023-03-01T04:47:52;19.63;;;8.10;;
77948;SDS011;67146;51.236;-0.336;2023-03-01T04:50:18;19.80;;;7.78;;
77948;SDS011;67146;51.236;-0.336;2023-03-01T04:52:48;18.42;;;6.75;;
77948;SDS011;67146;51.236;-0.336;2023-03-01T04:55:14;14.10;;;5.05;;
77948;SDS011;67146;51.236;-0.336;2023-03-01T04:57:40;14.52;;;5.00;;
77948;SDS011;67146;51.236;-0.336;2023-03-01T05:00:06;22.00;;;5.80;;
77948;SDS011;67146;51.236;-0.336;2023-03-01T05:02:46;16.45;;;6.15;;
77948;SDS011;67146;51.236;-0.336;2023-03-01T05:05:33;18.33;;;7.10;;
77948;SDS011;67146;51.236;-0.336;2023-03-01T05:08:02;14.80;;;5.10;;
77948;SDS011;67146;51.236;-0.336;2023-03-01T05:10:29;14.30;;;6.00;;
77948;SDS011;67146;51.236;-0.336;2023-03-01T05:12:56;14.52;;;4.40;;
77948;SDS011;67146;51.236;-0.336;2023-03-01T05:15:22;42.47;;;6.60;;
77948;SDS011;67146;51.236;-0.336;2023-03-01T05:17:50;9.77;;;3.15;;
77948;SDS011;67146;51.236;-0.336;2023-03-01T05:20:16;10.77;;;3.65;;
77948;SDS011;67146;51.236;-0.336;2023-03-01T05:22:42;8.68;;;2.75;;
77948;SDS011;67146;51.236;-0.336;2023-03-01T05:25:07;12.55;;;3.65;;
77948;SDS011;67146;51.236;-0.336;2023-03-01T05:27:33;8.95;;;3.35;;
77948;SDS011;67146;51.236;-0.336;2023-03-01T05:29:59;9.07;;;2.72;;
77948;SDS011;67146;51.236;-0.336;2023-03-01T05:32:38;8.77;;;2.90;;
77948;SDS011;67146;51.236;-0.336;2023-03-01T05:35:08;8.57;;;2.80;;
77948;SDS011;67146;51.236;-0.336;2023-03-01T05:37:33;12.88;;;3.58;;
77948;SDS011;67146;51.236;-0.336;2023-03-01T05:40:00;7.07;;;2.22;;
77948;SDS011;67146;51.236;-0.336;2023-03-01T05:42:26;7.03;;;2.05;;
77948;SDS011;67146;51.236;-0.336;2023-03-01T05:44:51;9.87;;;2.97;;
77948;SDS011;67146;51.236;-0.336;2023-03-01T05:47:16;7.93;;;2.37;;
77948;SDS011;67146;51.236;-0.336;2023-03-01T05:49:42;6.53;;;2.13;;
77948;SDS011;67146;51.236;-0.336;2023-03-01T05:52:07;7.87;;;1.87;;
77948;SDS011;67146;51.236;-0.336;2023-03-01T05:54:32;7.13;;;1.70;;
77948;SDS011;67146;51.236;-0.336;2023-03-01T05:56:58;6.68;;;2.60;;
77948;SDS011;67146;51.236;-0.336;2023-03-01T05:59:23;5.43;;;1.53;;
77948;SDS011;67146;51.236;-0.336;2023-03-01T06:01:48;6.57;;;1.70;;
77948;SDS011;67146;51.236;-0.336;2023-03-01T06:04:14;6.35;;;2.08;;
77948;SDS011;67146;51.236;-0.336;2023-03-01T06:06:40;4.70;;;1.77;;
77948;SDS011;67146;51.236;-0.336;2023-03-01T06:09:06;5.27;;;1.90;;
77948;SDS011;67146;51.236;-0.336;2023-03-01T06:11:33;14.18;;;3.28;;
77948;SDS011;67146;51.236;-0.336;2023-03-01T06:13:59;6.65;;;2.55;;
77948;SDS011;67146;51.236;-0.336;2023-03-01T06:16:24;5.30;;;1.17;;
77948;SDS011;67146;51.236;-0.336;2023-03-01T06:18:49;6.53;;;2.13;;
77948;SDS011;67146;51.236;-0.336;2023-03-01T06:21:15;4.90;;;1.63;;
77948;SDS011;67146;51.236;-0.336;2023-03-01T06:23:40;7.03;;;1.80;;
77948;SDS011;67146;51.236;-0.336;2023-03-01T06:26:06;5.17;;;1.50;;
77948;SDS011;67146;51.236;-0.336;2023-03-01T06:28:32;5.85;;;1.92;;
77948;SDS011;67146;51.236;-0.336;2023-03-01T06:30:58;5.80;;;1.85;;
77948;SDS011;67146;51.236;-0.336;2023-03-01T06:33:23;5.70;;;1.67;;
77948;SDS011;67146;51.236;-0.336;2023-03-01T06:35:49;51.72;;;9.52;;
77948;SDS011;67146;51.236;-0.336;2023-03-01T06:38:15;6.28;;;1.52;;
77948;SDS011;67146;51.236;-0.336;2023-03-01T06:40:42;11.77;;;1.67;;
77948;SDS011;67146;51.236;-0.336;2023-03-01T06:43:07;6.63;;;1.73;;
77948;SDS011;67146;51.236;-0.336;2023-03-01T06:45:33;4.80;;;0.90;;
77948;SDS011;67146;51.236;-0.336;2023-03-01T06:48:01;5.75;;;1.20;;
77948;SDS011;67146;51.236;-0.336;2023-03-01T06:50:30;17.50;;;2.08;;
77948;SDS011;67146;51.236;-0.336;2023-03-01T06:52:56;10.07;;;1.42;;
77948;SDS011;67146;51.236;-0.336;2023-03-01T06:55:21;10.95;;;2.10;;
77948;SDS011;67146;51.236;-0.336;2023-03-01T06:57:47;6.53;;;1.38;;
77948;SDS011;67146;51.236;-0.336;2023-03-01T07:00:12;5.73;;;1.80;;
77948;SDS011;67146;51.236;-0.336;2023-03-01T07:02:38;6.82;;;1.45;;
77948;SDS011;67146;51.236;-0.336;2023-03-01T07:05:04;12.97;;;2.23;;
77948;SDS011;67146;51.236;-0.336;2023-03-01T07:07:29;13.57;;;2.53;;
77948;SDS011;67146;51.236;-0.336;2023-03-01T07:09:54;23.77;;;2.67;;
77948;SDS011;67146;51.236;-0.336;2023-03-01T07:12:20;6.90;;;1.87;;
77948;SDS011;67146;51.236;-0.336;2023-03-01T07:14:45;10.13;;;2.37;;
77948;SDS011;67146;51.236;-0.336;2023-03-01T07:17:10;8.10;;;2.53;;
77948;SDS011;67146;51.236;-0.336;2023-03-01T07:19:36;6.90;;;1.83;;
77948;SDS011;67146;51.236;-0.336;2023-03-01T07:22:02;6.07;;;2.07;;
77948;SDS011;67146;51.236;-0.336;2023-03-01T07:24:29;6.22;;;1.67;;
77948;SDS011;67146;51.236;-0.336;2023-03-01T07:26:54;5.27;;;1.50;;
77948;SDS011;67146;51.236;-0.336;2023-03-01T07:29:19;6.32;;;1.67;;
77948;SDS011;67146;51.236;-0.336;2023-03-01T07:31:45;8.05;;;2.83;;
77948;SDS011;67146;51.236;-0.336;2023-03-01T07:34:10;9.48;;;2.30;;
77948;SDS011;67146;51.236;-0.336;2023-03-01T07:36:36;30.98;;;4.45;;
77948;SDS011;67146;51.236;-0.336;2023-03-01T07:39:02;5.40;;;1.55;;
77948;SDS011;67146;51.236;-0.336;2023-03-01T07:41:28;10.15;;;1.85;;
77948;SDS011;67146;51.236;-0.336;2023-03-01T07:43:54;9.40;;;1.52;;
77948;SDS011;67146;51.236;-0.336;2023-03-01T07:46:19;5.18;;;1.40;;
77948;SDS011;67146;51.236;-0.336;2023-03-01T07:48:45;5.47;;;1.95;;
77948;SDS011;67146;51.236;-0.336;2023-03-01T07:51:11;6.70;;;1.65;;
77948;SDS011;67146;51.236;-0.336;2023-03-01T07:53:37;5.22;;;1.42;;
77948;SDS011;67146;51.236;-0.336;2023-03-01T07:56:06;5.47;;;1.40;;
77948;SDS011;67146;51.236;-0.336;2023-03-01T07:58:39;7.75;;;1.60;;
77948;SDS011;67146;51.236;-0.336;2023-03-01T08:01:06;5.65;;;1.52;;
77948;SDS011;67146;51.236;-0.336;2023-03-01T08:03:33;5.90;;;2.42;;
77948;SDS011;67146;51.236;-0.336;2023-03-01T08:05:59;5.03;;;1.40;;
77948;SDS011;67146;51.236;-0.336;2023-03-01T08:08:26;7.20;;;1.83;;
77948;SDS011;67146;51.236;-0.336;2023-03-01T08:10:51;53.47;;;7.00;;
77948;SDS011;67146;51.236;-0.336;2023-03-01T08:13:17;8.68;;;1.00;;
77948;SDS011;67146;51.236;-0.336;2023-03-01T08:15:47;5.38;;;1.20;;
77948;SDS011;67146;51.236;-0.336;2023-03-01T08:18:15;7.32;;;1.00;;
77948;SDS011;67146;51.236;-0.336;2023-03-01T08:20:41;6.10;;;1.23;;
77948;SDS011;67146;51.236;-0.336;2023-03-01T08:23:06;4.93;;;0.90;;
77948;SDS011;67146;51.236;-0.336;2023-03-01T08:25:32;4.07;;;0.90;;
77948;SDS011;67146;51.236;-0.336;2023-03-01T08:27:57;5.60;;;1.13;;
77948;SDS011;67146;51.236;-0.336;2023-03-01T08:30:22;5.67;;;1.00;;
77948;SDS011;67146;51.236;-0.336;2023-03-01T08:32:49;60.25;;;5.13;;
77948;SDS011;67146;51.236;-0.336;2023-03-01T08:35:14;5.03;;;1.05;;
77948;SDS011;67146;51.236;-0.336;2023-03-01T08:37:39;6.13;;;1.30;;
77948;SDS011;67146;51.236;-0.336;2023-03-01T08:40:05;4.70;;;0.80;;
77948;SDS011;67146;51.236;-0.336;2023-03-01T08:42:34;6.88;;;0.95;;
77948;SDS011;67146;51.236;-0.336;2023-03-01T08:45:01;6.28;;;1.58;;
77948;SDS011;67146;51.236;-0.336;2023-03-01T08:47:26;3.72;;;0.85;;
77948;SDS011;67146;51.236;-0.336;2023-03-01T08:49:52;9.77;;;1.90;;
77948;SDS011;67146;51.236;-0.336;2023-03-01T08:52:17;5.45;;;1.00;;
77948;SDS011;67146;51.236;-0.336;2023-03-01T08:54:44;5.90;;;1.65;;
77948;SDS011;67146;51.236;-0.336;2023-03-01T08:57:09;3.80;;;0.60;;
77948;SDS011;67146;51.236;-0.336;2023-03-01T08:59:34;8.55;;;0.80;;
77948;SDS011;67146;51.236;-0.336;2023-03-01T09:02:02;4.90;;;0.60;;
77948;SDS011;67146;51.236;-0.336;2023-03-01T09:04:33;5.93;;;0.90;;
77948;SDS011;67146;51.236;-0.336;2023-03-01T09:06:58;3.73;;;0.63;;
77948;SDS011;67146;51.236;-0.336;2023-03-01T09:09:24;4.55;;;0.73;;
77948;SDS011;67146;51.236;-0.336;2023-03-01T09:11:49;6.87;;;0.50;;
77948;SDS011;67146;51.236;-0.336;2023-03-01T09:14:15;11.00;;;1.40;;
77948;SDS011;67146;51.236;-0.336;2023-03-01T09:16:41;7.57;;;1.00;;
77948;SDS011;67146;51.236;-0.336;2023-03-01T09:19:06;4.05;;;0.60;;
77948;SDS011;67146;51.236;-0.336;2023-03-01T09:21:31;4.83;;;0.70;;
77948;SDS011;67146;51.236;-0.336;2023-03-01T09:23:57;3.70;;;0.70;;
77948;SDS011;67146;51.236;-0.336;2023-03-01T09:26:23;5.55;;;0.57;;
77948;SDS011;67146;51.236;-0.336;2023-03-01T09:28:49;5.05;;;0.68;;
77948;SDS011;67146;51.236;-0.336;2023-03-01T09:31:16;5.50;;;0.70;;
77948;SDS011;67146;51.236;-0.336;2023-03-01T09:33:42;4.40;;;0.40;;
77948;SDS011;67146;51.236;-0.336;2023-03-01T09:36:15;4.25;;;0.45;;
77948;SDS011;67146;51.236;-0.336;2023-03-01T09:38:42;3.55;;;0.50;;
77948;SDS011;67146;51.236;-0.336;2023-03-01T09:41:09;2.42;;;0.25;;
77948;SDS011;67146;51.236;-0.336;2023-03-01T09:46:19;3.45;;;1.25;;
77948;SDS011;67146;51.236;-0.336;2023-03-01T09:48:50;2.85;;;0.40;;
77948;SDS011;67146;51.236;-0.336;2023-03-01T09:51:19;4.85;;;0.50;;
77948;SDS011;67146;51.236;-0.336;2023-03-01T09:53:50;4.78;;;0.30;;
77948;SDS011;67146;51.236;-0.336;2023-03-01T09:56:59;4.50;;;0.60;;
77948;SDS011;67146;51.236;-0.336;2023-03-01T10:01:46;9.77;;;0.80;;
77948;SDS011;67146;51.236;-0.336;2023-03-01T10:09:40;3.40;;;0.37;;
77948;SDS011;67146;51.236;-0.336;2023-03-01T10:12:12;3.38;;;0.30;;
77948;SDS011;67146;51.236;-0.336;2023-03-01T10:19:53;1.92;;;0.30;;
77948;SDS011;67146;51.236;-0.336;2023-03-01T10:22:20;4.10;;;0.47;;
77948;SDS011;67146;51.236;-0.336;2023-03-01T10:30:02;5.20;;;0.60;;
77948;SDS011;67146;51.236;-0.336;2023-03-01T10:32:32;2.33;;;0.22;;
77948;SDS011;67146;51.236;-0.336;2023-03-01T10:34:58;3.78;;;0.43;;
77948;SDS011;67146;51.236;-0.336;2023-03-01T10:37:23;3.25;;;0.40;;
77948;SDS011;67146;51.236;-0.336;2023-03-01T10:39:58;3.00;;;0.17;;
77948;SDS011;67146;51.236;-0.336;2023-03-01T10:42:31;2.30;;;0.40;;
77948;SDS011;67146;51.236;-0.336;2023-03-01T10:45:14;8.30;;;1.63;;
77948;SDS011;67146;51.236;-0.336;2023-03-01T10:47:40;4.65;;;0.50;;
77948;SDS011;67146;51.236;-0.336;2023-03-01T10:50:08;3.03;;;0.30;;
77948;SDS011;67146;51.236;-0.336;2023-03-01T10:52:43;3.28;;;0.65;;
77948;SDS011;67146;51.236;-0.336;2023-03-01T10:55:37;3.72;;;0.50;;
77948;SDS011;67146;51.236;-0.336;2023-03-01T10:58:09;4.85;;;0.63;;
77948;SDS011;67146;51.236;-0.336;2023-03-01T11:03:23;3.63;;;0.38;;
77948;SDS011;67146;51.236;-0.336;2023-03-01T11:08:43;2.60;;;0.30;;
77948;SDS011;67146;51.236;-0.336;2023-03-01T11:11:19;3.28;;;0.30;;
77948;SDS011;67146;51.236;-0.336;2023-03-01T11:16:28;3.05;;;0.30;;
77948;SDS011;67146;51.236;-0.336;2023-03-01T11:19:13;4.00;;;1.05;;
77948;SDS011;67146;51.236;-0.336;2023-03-01T11:24:25;3.72;;;0.68;;
77948;SDS011;67146;51.236;-0.336;2023-03-01T11:26:55;3.78;;;0.40;;
77948;SDS011;67146;51.236;-0.336;2023-03-01T11:29:25;3.45;;;0.45;;
77948;SDS011;67146;51.236;-0.336;2023-03-01T11:31:55;3.13;;;0.60;;
77948;SDS011;67146;51.236;-0.336;2023-03-01T11:34:35;2.72;;;0.40;;
77948;SDS011;67146;51.236;-0.336;2023-03-01T11:37:08;6.65;;;0.57;;
77948;SDS011;67146;51.236;-0.336;2023-03-01T11:39:38;2.03;;;0.40;;
77948;SDS011;67146;51.236;-0.336;2023-03-01T11:44:54;2.75;;;0.20;;
77948;SDS011;67146;51.236;-0.336;2023-03-01T12:01:29;4.32;;;0.50;;
77948;SDS011;67146;51.236;-0.336;2023-03-01T12:06:52;1.42;;;0.20;;
77948;SDS011;67146;51.236;-0.336;2023-03-01T12:25:32;3.33;;;0.20;;
77948;SDS011;67146;51.236;-0.336;2023-03-01T12:34:14;2.20;;;0.20;;
77948;SDS011;67146;51.236;-0.336;2023-03-01T12:42:35;2.97;;;0.10;;
77948;SDS011;67146;51.236;-0.336;2023-03-01T12:50:41;3.00;;;0.68;;
77948;SDS011;67146;51.236;-0.336;2023-03-01T12:53:50;1.83;;;0.40;;
77948;SDS011;67146;51.236;-0.336;2023-03-01T12:56:01;2.38;;;0.30;;
77948;SDS011;67146;51.236;-0.336;2023-03-01T12:58:38;2.55;;;0.30;;
77948;SDS011;67146;51.236;-0.336;2023-03-01T13:03:52;2.60;;;0.35;;
77948;SDS011;67146;51.236;-0.336;2023-03-01T13:06:25;3.88;;;1.20;;
77948;SDS011;67146;51.236;-0.336;2023-03-01T13:11:34;2.75;;;0.22;;
77948;SDS011;67146;51.236;-0.336;2023-03-01T13:14:34;6.93;;;0.40;;
77948;SDS011;67146;51.236;-0.336;2023-03-01T13:17:00;3.25;;;0.30;;
77948;SDS011;67146;51.236;-0.336;2023-03-01T13:19:26;2.70;;;0.53;;
77948;SDS011;67146;51.236;-0.336;2023-03-01T13:21:57;2.72;;;0.32;;
77948;SDS011;67146;51.236;-0.336;2023-03-01T13:24:27;4.13;;;0.70;;
77948;SDS011;67146;51.236;-0.336;2023-03-01T13:29:43;3.03;;;0.40;;
77948;SDS011;67146;51.236;-0.336;2023-03-01T13:35:08;3.65;;;0.40;;
77948;SDS011;67146;51.236;-0.336;2023-03-01T13:37:51;3.80;;;0.50;;
77948;SDS011;67146;51.236;-0.336;2023-03-01T13:42:46;2.63;;;0.55;;
77948;SDS011;67146;51.236;-0.336;2023-03-01T13:45:23;3.00;;;0.30;;
77948;SDS011;67146;51.236;-0.336;2023-03-01T13:48:08;5.05;;;0.70;;
77948;SDS011;67146;51.236;-0.336;2023-03-01T13:50:51;3.22;;;0.30;;
77948;SDS011;67146;51.236;-0.336;2023-03-01T13:53:19;3.42;;;0.45;;
77948;SDS011;67146;51.236;-0.336;2023-03-01T13:58:24;2.47;;;0.40;;
77948;SDS011;67146;51.236;-0.336;2023-03-01T14:03:23;3.80;;;1.10;;
77948;SDS011;67146;51.236;-0.336;2023-03-01T14:05:59;3.63;;;0.60;;
77948;SDS011;67146;51.236;-0.336;2023-03-01T14:08:33;3.92;;;0.57;;
77948;SDS011;67146;51.236;-0.336;2023-03-01T14:11:20;2.90;;;0.45;;
77948;SDS011;67146;51.236;-0.336;2023-03-01T14:19:34;6.60;;;0.65;;
77948;SDS011;67146;51.236;-0.336;2023-03-01T14:22:12;10.73;;;0.60;;
77948;SDS011;67146;51.236;-0.336;2023-03-01T14:24:40;3.60;;;0.40;;
77948;SDS011;67146;51.236;-0.336;2023-03-01T14:27:15;3.25;;;0.30;;
77948;SDS011;67146;51.236;-0.336;2023-03-01T14:29:41;3.33;;;0.20;;
77948;SDS011;67146;51.236;-0.336;2023-03-01T14:32:12;3.40;;;0.30;;
77948;SDS011;67146;51.236;-0.336;2023-03-01T14:34:45;3.08;;;0.28;;
77948;SDS011;67146;51.236;-0.336;2023-03-01T14:37:17;2.53;;;0.30;;
77948;SDS011;67146;51.236;-0.336;2023-03-01T14:39:50;6.35;;;0.40;;
77948;SDS011;67146;51.236;-0.336;2023-03-01T14:42:16;3.72;;;0.30;;
77948;SDS011;67146;51.236;-0.336;2023-03-01T14:44:45;4.03;;;0.43;;
77948;SDS011;67146;51.236;-0.336;2023-03-01T14:47:14;3.28;;;0.20;;
77948;SDS011;67146;51.236;-0.336;2023-03-01T14:49:41;3.83;;;0.30;;
77948;SDS011;67146;51.236;-0.336;2023-03-01T14:52:07;3.17;;;0.40;;
77948;SDS011;67146;51.236;-0.336;2023-03-01T14:54:44;2.83;;;0.30;;
77948;SDS011;67146;51.236;-0.336;2023-03-01T14:57:25;4.25;;;0.65;;
77948;SDS011;67146;51.236;-0.336;2023-03-01T14:59:51;2.75;;;0.20;;
77948;SDS011;67146;51.236;-0.336;2023-03-01T15:02:19;2.33;;;0.20;;
77948;SDS011;67146;51.236;-0.336;2023-03-01T15:04:47;3.97;;;0.40;;
77948;SDS011;67146;51.236;-0.336;2023-03-01T15:07:14;4.43;;;0.65;;
77948;SDS011;67146;51.236;-0.336;2023-03-01T15:09:40;4.97;;;1.20;;
77948;SDS011;67146;51.236;-0.336;2023-03-01T15:14:53;5.43;;;0.73;;
77948;SDS011;67146;51.236;-0.336;2023-03-01T15:19:57;5.38;;;0.90;;
77948;SDS011;67146;51.236;-0.336;2023-03-01T15:22:24;5.93;;;0.55;;
77948;SDS011;67146;51.236;-0.336;2023-03-01T15:24:50;3.92;;;0.52;;
77948;SDS011;67146;51.236;-0.336;2023-03-01T15:27:17;5.88;;;1.50;;
77948;SDS011;67146;51.236;-0.336;2023-03-01T15:29:52;9.55;;;2.85;;
77948;SDS011;67146;51.236;-0.336;2023-03-01T15:34:53;4.63;;;0.50;;
77948;SDS011;67146;51.236;-0.336;2023-03-01T15:40:17;2.95;;;0.43;;
77948;SDS011;67146;51.236;-0.336;2023-03-01T15:42:56;4.47;;;0.93;;
77948;SDS011;67146;51.236;-0.336;2023-03-01T15:45:24;3.95;;;0.43;;
77948;SDS011;67146;51.236;-0.336;2023-03-01T15:47:55;3.60;;;0.45;;
77948;SDS011;67146;51.236;-0.336;2023-03-01T15:50:27;4.18;;;0.80;;
77948;SDS011;67146;51.236;-0.336;2023-03-01T15:52:54;5.28;;;0.73;;
77948;SDS011;67146;51.236;-0.336;2023-03-01T15:55:24;3.47;;;0.38;;
77948;SDS011;67146;51.236;-0.336;2023-03-01T15:57:58;3.63;;;0.30;;
77948;SDS011;67146;51.236;-0.336;2023-03-01T16:00:27;5.45;;;0.60;;
77948;SDS011;67146;51.236;-0.336;2023-03-01T16:02:54;4.05;;;0.60;;
77948;SDS011;67146;51.236;-0.336;2023-03-01T16:05:21;4.55;;;0.50;;
77948;SDS011;67146;51.236;-0.336;2023-03-01T16:07:48;4.25;;;0.50;;
77948;SDS011;67146;51.236;-0.336;2023-03-01T16:10:14;7.45;;;0.70;;
77948;SDS011;67146;51.236;-0.336;2023-03-01T16:12:39;5.47;;;0.82;;
77948;SDS011;67146;51.236;-0.336;2023-03-01T16:15:08;5.45;;;0.52;;
77948;SDS011;67146;51.236;-0.336;2023-03-01T16:17:44;5.00;;;0.50;;
77948;SDS011;67146;51.236;-0.336;2023-03-01T16:20:09;3.28;;;0.32;;
77948;SDS011;67146;51.236;-0.336;2023-03-01T16:22:35;5.65;;;1.80;;
77948;SDS011;67146;51.236;-0.336;2023-03-01T16:25:00;4.93;;;0.73;;
77948;SDS011;67146;51.236;-0.336;2023-03-01T16:27:27;5.53;;;1.38;;
77948;SDS011;67146;51.236;-0.336;2023-03-01T16:29:52;3.53;;;0.45;;
77948;SDS011;67146;51.236;-0.336;2023-03-01T16:32:18;3.53;;;0.60;;
77948;SDS011;67146;51.236;-0.336;2023-03-01T16:34:43;4.97;;;0.50;;
77948;SDS011;67146;51.236;-0.336;2023-03-01T16:37:08;3.17;;;0.60;;
77948;SDS011;67146;51.236;-0.336;2023-03-01T16:39:34;4.50;;;0.60;;
77948;SDS011;67146;51.236;-0.336;2023-03-01T16:41:59;5.57;;;0.90;;
77948;SDS011;67146;51.236;-0.336;2023-03-01T16:44:25;4.15;;;0.32;;
77948;SDS011;67146;51.236;-0.336;2023-03-01T16:46:51;3.13;;;0.33;;
77948;SDS011;67146;51.236;-0.336;2023-03-01T16:49:16;3.50;;;0.70;;